createdAt,value
2022-08-07T00:00:13.834Z,99369.81
2022-08-07T00:02:48.635Z,99370.66
2022-08-07T00:05:17.915Z,99370.13
2022-08-07T00:07:48.226Z,99372.94
2022-08-07T00:10:31.487Z,99363.88
2022-08-07T00:13:17.633Z,99372.03
2022-08-07T00:16:00.070Z,99367.25
2022-08-07T00:18:32.153Z,99370.66
2022-08-07T00:21:08.323Z,99366.47
2022-08-07T00:23:58.579Z,99367.88
2022-08-07T00:26:49.379Z,99365.31
2022-08-07T00:29:18.579Z,99372.03
2022-08-07T00:31:55.920Z,99370.31
2022-08-07T00:34:28.946Z,99369.78
2022-08-07T00:36:57.775Z,99378.47
2022-08-07T00:39:29.986Z,99377.16
2022-08-07T00:42:05.018Z,99379.69
2022-08-07T00:44:35.596Z,99382.78
2022-08-07T00:47:15.860Z,99382.19
2022-08-07T00:50:20.458Z,99386.13
2022-08-07T00:52:56.206Z,99382.47
2022-08-07T00:56:02.567Z,99384.19
2022-08-07T00:58:13.385Z,99394.53
2022-08-07T01:00:53.493Z,99387.81
2022-08-07T01:03:56.252Z,99381.59
2022-08-07T01:06:10.663Z,99381.91
2022-08-07T01:08:51.408Z,99381.66
2022-08-07T01:12:23.740Z,99387.22
2022-08-07T01:14:15.408Z,99378.84
2022-08-07T01:16:47.159Z,99378.84
2022-08-07T01:19:20.755Z,99370.97
2022-08-07T01:21:56.408Z,99371.84
2022-08-07T01:24:36.106Z,99370.94
2022-08-07T01:27:05.898Z,99368.72
2022-08-07T01:29:47.375Z,99370.94
2022-08-07T01:32:15.562Z,99361.41
2022-08-07T01:34:47.354Z,99367.63
2022-08-07T01:37:20.082Z,99360.00
2022-08-07T01:39:50.748Z,99369.56
2022-08-07T01:42:38.493Z,99366.50
2022-08-07T01:45:18.549Z,99360.88
2022-08-07T01:48:19.472Z,99368.72
2022-08-07T01:52:02.098Z,99370.03
2022-08-07T01:54:12.076Z,99363.38
2022-08-07T01:57:08.682Z,99365.22
2022-08-07T02:00:12.983Z,99360.72
2022-08-07T02:03:19.108Z,99359.63
2022-08-07T02:05:59.783Z,99353.47
2022-08-07T02:08:40.952Z,99346.69
2022-08-07T02:11:57.726Z,99347.22
2022-08-07T02:14:11.416Z,99345.06
2022-08-07T02:17:00.766Z,99341.72
2022-08-07T02:20:07.431Z,99341.72
2022-08-07T02:22:33.177Z,99347.53
2022-08-07T02:25:13.872Z,99338.53
2022-08-07T02:27:57.370Z,99336.00
2022-08-07T02:30:27.870Z,99328.22
2022-08-07T02:33:03.918Z,99334.97
2022-08-07T02:36:29.500Z,99341.19
2022-08-07T02:38:38.453Z,99329.13
2022-08-07T02:41:08.001Z,99333.34
2022-08-07T02:43:43.343Z,99336.44
2022-08-07T02:46:26.159Z,99337.00
2022-08-07T02:48:58.456Z,99340.03
2022-08-07T02:51:42.956Z,99347.88
2022-08-07T02:54:25.209Z,99339.44
2022-08-07T02:56:56.955Z,99339.75
2022-08-07T02:59:29.377Z,99342.63
2022-08-07T03:02:03.569Z,99345.69
2022-08-07T03:04:32.845Z,99344.56
2022-08-07T03:07:03.283Z,99343.72
2022-08-07T03:09:43.870Z,99355.22
2022-08-07T03:12:22.274Z,99345.63
2022-08-07T03:15:07.386Z,99349.50
2022-08-07T03:17:54.075Z,99350.06
2022-08-07T03:20:26.254Z,99347.88
2022-08-07T03:22:55.809Z,99347.00
2022-08-07T03:25:32.459Z,99343.13
2022-08-07T03:28:37.441Z,99348.00
2022-08-07T03:31:26.243Z,99350.50
2022-08-07T03:34:18.519Z,99341.84
2022-08-07T03:36:57.391Z,99353.06
2022-08-07T03:39:46.426Z,99346.56
2022-08-07T03:42:20.043Z,99342.50
2022-08-07T03:44:53.341Z,99337.28
2022-08-07T03:47:29.600Z,99329.59
2022-08-07T03:50:22.891Z,99330.03
2022-08-07T03:52:57.326Z,99333.63
2022-08-07T03:55:48.724Z,99331.38
2022-08-07T03:59:05.064Z,99331.50
2022-08-07T04:01:11.255Z,99338.06
2022-08-07T04:03:53.549Z,99336.78
2022-08-07T04:06:37.441Z,99333.81
2022-08-07T04:09:15.761Z,99331.50
2022-08-07T04:12:27.030Z,99333.94
2022-08-07T04:14:46.375Z,99339.06
2022-08-07T04:18:31.410Z,99339.38
2022-08-07T04:20:12.874Z,99341.25
2022-08-07T04:22:53.214Z,99346.06
2022-08-07T04:25:29.124Z,99342.38
2022-08-07T04:28:01.191Z,99356.44
2022-08-07T04:30:39.347Z,99356.13
2022-08-07T04:33:21.359Z,99370.72
2022-08-07T04:35:53.233Z,99364.88
2022-08-07T04:38:28.724Z,99372.78
2022-08-07T04:40:58.323Z,99373.13
2022-08-07T04:44:09.888Z,99374.78
2022-08-07T04:47:04.574Z,99370.94
2022-08-07T04:49:57.892Z,99372.09
2022-08-07T04:52:52.255Z,99374.25
2022-08-07T04:58:12.228Z,99377.66
2022-08-07T05:00:14.423Z,99371.66
2022-08-07T05:04:00.935Z,99372.88
2022-08-07T05:06:55.174Z,99376.41
2022-08-07T05:10:05.586Z,99385.41
2022-08-07T05:12:59.980Z,99381.72
2022-08-07T05:15:45.425Z,99382.34
2022-08-07T05:18:41.504Z,99394.00
2022-08-07T05:21:14.569Z,99390.97
2022-08-07T05:24:02.545Z,99393.25
2022-08-07T05:26:35.018Z,99403.25
2022-08-07T05:29:11.676Z,99408.63
2022-08-07T05:31:47.434Z,99407.81
2022-08-07T05:34:26.159Z,99405.22
2022-08-07T05:36:57.682Z,99414.56
2022-08-07T05:40:13.722Z,99409.25
2022-08-07T05:42:34.404Z,99413.31
2022-08-07T05:45:14.343Z,99419.66
2022-08-07T05:48:01.219Z,99420.44
2022-08-07T05:50:39.598Z,99418.03
2022-08-07T05:54:09.343Z,99413.56
2022-08-07T05:56:06.125Z,99415.31
2022-08-07T05:58:41.728Z,99415.63
2022-08-07T06:01:27.044Z,99422.28
2022-08-07T06:04:07.212Z,99426.19
2022-08-07T06:06:46.354Z,99423.16
2022-08-07T06:09:18.266Z,99420.59
2022-08-07T06:11:49.920Z,99428.25
2022-08-07T06:14:28.980Z,99426.28
2022-08-07T06:17:07.099Z,99426.03
2022-08-07T06:19:51.819Z,99404.19
2022-08-07T06:22:40.114Z,99419.72
2022-08-07T06:25:23.551Z,99424.22
2022-08-07T06:28:10.775Z,99415.66
2022-08-07T06:31:17.837Z,99419.19
2022-08-07T06:33:54.836Z,99418.78
2022-08-07T06:36:35.027Z,99421.88
2022-08-07T06:40:17.715Z,99413.22
2022-08-07T06:42:42.392Z,99406.13
2022-08-07T06:45:35.773Z,99405.69
2022-08-07T06:48:11.408Z,99409.22
2022-08-07T06:50:47.710Z,99409.66
2022-08-07T06:55:29.105Z,99405.47
2022-08-07T06:56:16.779Z,99404.34
2022-08-07T07:00:13.977Z,99402.31
2022-08-07T07:01:50.978Z,99404.06
2022-08-07T07:04:28.071Z,99401.00
2022-08-07T07:07:19.036Z,99404.94
2022-08-07T07:09:50.969Z,99412.00
2022-08-07T07:12:48.716Z,99398.78
2022-08-07T07:15:37.666Z,99396.31
2022-08-07T07:18:46.972Z,99393.38
2022-08-07T07:21:40.305Z,99395.50
2022-08-07T07:24:17.332Z,99408.75
2022-08-07T07:26:51.803Z,99404.06
2022-08-07T07:29:40.634Z,99398.38
2022-08-07T07:32:16.938Z,99394.19
2022-08-07T07:34:54.646Z,99389.22
2022-08-07T07:37:52.640Z,99383.88
2022-08-07T07:40:26.052Z,99380.53
2022-08-07T07:42:58.586Z,99382.19
2022-08-07T07:46:49.875Z,99378.31
2022-08-07T07:48:35.769Z,99379.25
2022-08-07T07:51:08.645Z,99368.16
2022-08-07T07:53:51.731Z,99378.03
2022-08-07T07:56:30.145Z,99373.25
2022-08-07T07:59:06.072Z,99363.00
2022-08-07T08:02:04.817Z,99366.53
2022-08-07T08:04:34.056Z,99367.81
2022-08-07T08:07:07.746Z,99373.56
2022-08-07T08:09:52.407Z,99362.25
2022-08-07T08:12:51.585Z,99364.38
2022-08-07T08:15:17.351Z,99367.53
2022-08-07T08:17:57.334Z,99366.34
2022-08-07T08:20:32.220Z,99365.00
2022-08-07T08:23:21.186Z,99359.06
2022-08-07T08:26:20.482Z,99352.78
2022-08-07T08:28:53.597Z,99367.03
2022-08-07T08:31:58.998Z,99352.25
2022-08-07T08:34:35.930Z,99355.91
2022-08-07T08:37:09.703Z,99342.38
2022-08-07T08:39:54.891Z,99353.09
2022-08-07T08:42:51.667Z,99347.53
2022-08-07T08:46:00.662Z,99347.06
2022-08-07T08:49:05.776Z,99338.56
2022-08-07T08:52:18.941Z,99344.25
2022-08-07T08:55:53.926Z,99356.41
2022-08-07T08:59:06.448Z,99348.28
2022-08-07T09:02:14.413Z,99339.69
2022-08-07T09:05:37.717Z,99348.41
2022-08-07T09:08:55.462Z,99352.72
2022-08-07T09:11:50.791Z,99353.75
2022-08-07T09:14:58.772Z,99350.16
2022-08-07T09:18:08.728Z,99344.47
2022-08-07T09:21:13.780Z,99357.09
2022-08-07T09:24:31.520Z,99353.16
2022-08-07T09:27:59.870Z,99361.94
2022-08-07T09:31:05.194Z,99355.03
2022-08-07T09:34:53.983Z,99345.66
2022-08-07T09:38:26.530Z,99336.81
2022-08-07T09:41:58.319Z,99326.63
2022-08-07T09:47:25.996Z,99341.78
2022-08-07T09:48:29.726Z,99339.06
2022-08-07T09:52:10.266Z,99337.34
2022-08-07T09:55:28.711Z,99326.09
2022-08-07T09:58:20.765Z,99325.66
2022-08-07T10:01:51.692Z,99319.72
2022-08-07T10:05:14.965Z,99320.00
2022-08-07T10:08:51.475Z,99314.00
2022-08-07T10:12:16.679Z,99305.63
2022-08-07T10:15:44.891Z,99318.53
2022-08-07T10:18:44.229Z,99300.22
2022-08-07T10:22:14.004Z,99308.50
2022-08-07T10:25:14.110Z,99304.81
2022-08-07T10:28:14.931Z,99293.75
2022-08-07T10:30:58.722Z,99297.97
2022-08-07T10:34:06.462Z,99292.38
2022-08-07T10:38:09.876Z,99285.34
2022-08-07T10:41:51.971Z,99289.38
2022-08-07T10:45:03.381Z,99290.94
2022-08-07T10:48:20.006Z,99275.66
2022-08-07T10:50:54.931Z,99266.22
2022-08-07T10:54:00.135Z,99270.16
2022-08-07T10:57:07.390Z,99259.56
2022-08-07T11:00:39.281Z,99249.63
2022-08-07T11:03:28.106Z,99258.25
2022-08-07T11:06:50.585Z,99251.31
2022-08-07T11:10:08.855Z,99247.81
2022-08-07T11:13:02.277Z,99268.28
2022-08-07T11:15:40.639Z,99241.47
2022-08-07T11:19:13.189Z,99240.59
2022-08-07T11:22:32.440Z,99243.09
2022-08-07T11:26:22.177Z,99226.00
2022-08-07T11:29:42.977Z,99232.50
2022-08-07T11:32:25.787Z,99229.47
2022-08-07T11:36:10.448Z,99237.97
2022-08-07T11:38:50.416Z,99230.78
2022-08-07T11:42:01.851Z,99221.13
2022-08-07T11:44:52.720Z,99221.06
2022-08-07T11:48:44.179Z,99204.94
2022-08-07T11:51:46.688Z,99211.00
2022-08-07T11:54:57.644Z,99211.16
2022-08-07T11:58:14.521Z,99209.88
2022-08-07T12:02:01.087Z,99211.94
2022-08-07T12:05:49.094Z,99197.13
2022-08-07T12:08:34.575Z,99202.56
2022-08-07T12:11:32.218Z,99199.31
2022-08-07T12:15:35.479Z,99211.56
2022-08-07T12:18:29.726Z,99203.13
2022-08-07T12:22:38.899Z,99184.50
2022-08-07T12:26:23.318Z,99179.84
2022-08-07T12:29:12.410Z,99186.22
2022-08-07T12:32:57.732Z,99177.53
2022-08-07T12:36:49.583Z,99169.16
2022-08-07T12:40:50.875Z,99167.81
2022-08-07T12:44:34.657Z,99170.78
2022-08-07T12:47:30.437Z,99176.00
2022-08-07T12:51:17.595Z,99179.88
2022-08-07T12:55:05.520Z,99172.06
2022-08-07T12:58:02.198Z,99161.53
2022-08-07T13:01:45.345Z,99167.72
2022-08-07T13:06:04.464Z,99160.09
2022-08-07T13:08:51.770Z,99149.97
2022-08-07T13:12:03.117Z,99146.72
2022-08-07T13:15:44.764Z,99140.56
2022-08-07T13:19:35.133Z,99138.03
2022-08-07T13:24:01.244Z,99128.03
2022-08-07T13:26:26.556Z,99133.09
2022-08-07T13:29:25.905Z,99120.34
2022-08-07T13:32:23.607Z,99116.22
2022-08-07T13:35:21.460Z,99114.63
2022-08-07T13:38:21.083Z,99105.63
2022-08-07T13:41:11.205Z,99107.13
2022-08-07T13:43:52.853Z,99114.38
2022-08-07T13:46:49.070Z,99097.88
2022-08-07T13:50:33.872Z,99107.06
2022-08-07T13:52:30.649Z,99107.00
2022-08-07T13:55:10.742Z,99092.34
2022-08-07T13:57:59.114Z,99082.50
2022-08-07T14:00:54.119Z,99087.91
2022-08-07T14:04:05.494Z,99077.16
2022-08-07T14:06:33.279Z,99077.13
2022-08-07T14:09:17.133Z,99073.38
2022-08-07T14:13:02.060Z,99068.34
2022-08-07T14:15:43.638Z,99074.34
2022-08-07T14:18:30.431Z,99069.34
2022-08-07T14:22:02.317Z,99063.25
2022-08-07T14:24:19.378Z,99063.94
2022-08-07T14:28:09.552Z,99062.34
2022-08-07T14:30:14.497Z,99053.66
2022-08-07T14:33:17.486Z,99057.75
2022-08-07T14:35:59.272Z,99047.13
2022-08-07T14:38:36.857Z,99054.22
2022-08-07T14:41:33.885Z,99049.31
2022-08-07T14:45:46.302Z,99059.75
2022-08-07T14:49:57.934Z,99050.53
2022-08-07T14:53:07.939Z,99042.63
2022-08-07T14:58:34.225Z,99061.44
2022-08-07T15:02:32.145Z,99044.59
2022-08-07T15:05:05.027Z,99043.69
2022-08-07T15:09:57.659Z,99045.66
2022-08-07T15:13:11.570Z,99041.69
2022-08-07T15:15:52.692Z,99035.34
2022-08-07T15:21:44.011Z,99036.31
2022-08-07T15:28:56.729Z,99035.69
2022-08-07T15:33:04.080Z,99027.03
2022-08-07T15:37:03.786Z,99026.53
2022-08-07T15:39:56.805Z,99020.09
2022-08-07T15:43:55.804Z,99020.09
2022-08-07T15:46:31.868Z,99020.31
2022-08-07T15:52:08.565Z,99009.38
2022-08-07T15:54:43.809Z,99015.41
2022-08-07T15:57:47.528Z,99010.66
2022-08-07T16:00:33.472Z,99006.53
2022-08-07T16:03:46.114Z,98999.00
2022-08-07T16:06:19.865Z,99007.16
2022-08-07T16:08:53.788Z,99005.81
2022-08-07T16:12:38.972Z,99006.97
2022-08-07T16:15:57.294Z,99004.28
2022-08-07T16:18:49.744Z,98999.06
2022-08-07T16:22:04.956Z,99006.84
2022-08-07T16:24:52.357Z,99001.59
2022-08-07T16:29:18.729Z,98990.72
2022-08-07T16:31:51.005Z,98999.13
2022-08-07T16:34:48.114Z,98987.97
2022-08-07T16:38:06.538Z,98990.19
2022-08-07T16:41:23.291Z,98991.47
2022-08-07T16:44:55.363Z,98995.03
2022-08-07T16:47:56.672Z,98992.63
2022-08-07T16:51:54.530Z,98998.31
2022-08-07T16:54:55.000Z,98998.03
2022-08-07T16:58:02.412Z,98985.22
2022-08-07T17:00:44.938Z,98993.09
2022-08-07T17:03:58.083Z,98980.41
2022-08-07T17:07:51.483Z,98983.78
2022-08-07T17:10:32.569Z,98986.06
2022-08-07T17:13:20.288Z,98982.69
2022-08-07T17:16:05.883Z,98985.44
2022-08-07T17:18:46.032Z,98994.75
2022-08-07T17:21:51.534Z,98977.97
2022-08-07T17:25:13.331Z,98989.88
2022-08-07T17:28:06.987Z,98994.06
2022-08-07T17:31:16.311Z,98996.78
2022-08-07T17:34:57.234Z,99003.88
2022-08-07T17:38:06.643Z,99002.81
2022-08-07T17:41:12.288Z,99005.63
2022-08-07T17:44:45.565Z,98994.53
2022-08-07T17:48:48.179Z,99000.69
2022-08-07T17:51:59.947Z,99008.50
2022-08-07T17:55:04.351Z,99005.50
2022-08-07T17:58:05.106Z,99004.44
2022-08-07T18:01:56.920Z,99003.84
2022-08-07T18:06:01.574Z,99007.03
2022-08-07T18:10:04.666Z,99015.34
2022-08-07T18:13:48.839Z,99007.59
2022-08-07T18:16:57.467Z,99012.72
2022-08-07T18:21:02.300Z,99023.91
2022-08-07T18:23:58.721Z,99023.84
2022-08-07T18:26:56.800Z,99034.91
2022-08-07T18:30:40.507Z,99035.72
2022-08-07T18:34:40.761Z,99039.59
2022-08-07T18:38:59.081Z,99040.16
2022-08-07T18:41:45.924Z,99055.13
2022-08-07T18:45:39.952Z,99063.56
2022-08-07T18:50:05.485Z,99067.41
2022-08-07T18:52:37.613Z,99071.13
2022-08-07T18:55:43.284Z,99072.56
2022-08-07T18:59:47.883Z,99085.38
2022-08-07T19:02:55.997Z,99084.06
2022-08-07T19:06:03.670Z,99085.16
2022-08-07T19:09:09.535Z,99088.47
2022-08-07T19:12:48.953Z,99096.28
2022-08-07T19:16:05.503Z,99101.69
2022-08-07T19:19:14.445Z,99106.75
2022-08-07T19:22:05.219Z,99103.31
2022-08-07T19:26:25.327Z,99106.81
2022-08-07T19:30:54.655Z,99114.19
2022-08-07T19:32:06.818Z,99119.59
2022-08-07T19:35:50.756Z,99120.25
2022-08-07T19:39:56.606Z,99122.28
2022-08-07T19:43:48.980Z,99130.19
2022-08-07T19:46:29.179Z,99129.81
2022-08-07T19:49:19.355Z,99123.44
2022-08-07T19:52:07.040Z,99122.75
2022-08-07T19:54:56.362Z,99127.84
2022-08-07T19:58:04.126Z,99136.94
2022-08-07T20:01:57.188Z,99139.50
2022-08-07T20:04:38.156Z,99135.19
2022-08-07T20:08:24.607Z,99132.03
2022-08-07T20:12:31.655Z,99130.25
2022-08-07T20:16:22.435Z,99131.56
2022-08-07T20:20:15.210Z,99128.09
2022-08-07T20:22:47.053Z,99131.28
2022-08-07T20:25:19.751Z,99128.09
2022-08-07T20:27:57.856Z,99129.13
2022-08-07T20:30:41.253Z,99126.28
2022-08-07T20:33:36.416Z,99127.09
2022-08-07T20:36:08.874Z,99114.28
2022-08-07T20:38:59.439Z,99122.44
2022-08-07T20:41:38.187Z,99122.97
2022-08-07T20:44:12.866Z,99123.09
2022-08-07T20:46:45.040Z,99118.38
2022-08-07T20:49:59.424Z,99115.22
2022-08-07T20:52:16.510Z,99122.00
2022-08-07T20:54:53.718Z,99113.31
2022-08-07T20:57:29.152Z,99121.66
2022-08-07T21:00:09.432Z,99115.38
2022-08-07T21:02:58.738Z,99122.38
2022-08-07T21:05:51.501Z,99120.72
2022-08-07T21:08:46.755Z,99111.19
2022-08-07T21:11:40.281Z,99116.06
2022-08-07T21:14:32.038Z,99121.50
2022-08-07T21:18:04.071Z,99114.97
2022-08-07T21:20:05.278Z,99120.16
2022-08-07T21:22:51.340Z,99125.28
2022-08-07T21:25:29.976Z,99124.47
2022-08-07T21:28:48.388Z,99125.03
2022-08-07T21:32:42.969Z,99137.28
2022-08-07T21:34:48.589Z,99124.47
2022-08-07T21:37:58.610Z,99123.84
2022-08-07T21:40:41.937Z,99127.38
2022-08-07T21:43:22.809Z,99130.16
2022-08-07T21:46:47.558Z,99141.53
2022-08-07T21:50:02.675Z,99140.06
2022-08-07T21:53:12.945Z,99146.44
2022-08-07T21:56:02.272Z,99145.34
2022-08-07T22:00:04.461Z,99151.66
2022-08-07T22:03:48.458Z,99165.06
2022-08-07T22:06:33.864Z,99163.28
2022-08-07T22:10:16.805Z,99167.25
2022-08-07T22:13:02.675Z,99173.25
2022-08-07T22:16:42.807Z,99169.75
2022-08-07T22:20:28.495Z,99181.06
2022-08-07T22:24:11.338Z,99172.03
2022-08-07T22:28:07.832Z,99163.28
2022-08-07T22:32:05.268Z,99159.56
2022-08-07T22:35:48.849Z,99165.34
2022-08-07T22:39:35.200Z,99161.22
2022-08-07T22:43:34.181Z,99170.00
2022-08-07T22:47:17.166Z,99166.28
2022-08-07T22:51:00.206Z,99174.00
2022-08-07T22:54:49.017Z,99164.25
2022-08-07T22:58:10.391Z,99169.38
2022-08-07T23:01:53.729Z,99171.38
2022-08-07T23:06:09.688Z,99171.16
2022-08-07T23:10:00.681Z,99168.31
2022-08-07T23:12:47.903Z,99163.75
2022-08-07T23:16:44.757Z,99171.41
2022-08-07T23:20:52.310Z,99171.72
2022-08-07T23:24:06.043Z,99165.25
2022-08-07T23:28:20.268Z,99168.28
2022-08-07T23:32:49.238Z,99177.31
2022-08-07T23:35:37.246Z,99174.53
2022-08-07T23:38:55.182Z,99173.19
2022-08-07T23:42:38.047Z,99169.56
2022-08-07T23:46:23.665Z,99163.72
2022-08-07T23:50:06.647Z,99166.59
2022-08-07T23:53:53.995Z,99162.91
2022-08-07T23:56:38.839Z,99161.56
